sensor_id;sensor_type;location;lat;lon;timestamp;P1;durP1;ratioP1;P2;durP2;ratioP2
16824;SDS011;8529;48.108;-1.706;2022-10-31T00:00:52;8.10;;;3.35;;
16824;SDS011;8529;48.108;-1.706;2022-10-31T00:03:21;6.72;;;2.67;;
16824;SDS011;8529;48.108;-1.706;2022-10-31T00:05:48;9.50;;;3.53;;
16824;SDS011;8529;48.108;-1.706;2022-10-31T00:08:16;9.32;;;3.45;;
16824;SDS011;8529;48.108;-1.706;2022-10-31T00:10:44;9.18;;;3.05;;
16824;SDS011;8529;48.108;-1.706;2022-10-31T00:13:12;9.27;;;3.17;;
16824;SDS011;8529;48.108;-1.706;2022-10-31T00:15:41;7.80;;;2.97;;
16824;SDS011;8529;48.108;-1.706;2022-10-31T00:18:08;7.47;;;3.03;;
16824;SDS011;8529;48.108;-1.706;2022-10-31T00:20:38;8.90;;;3.45;;
16824;SDS011;8529;48.108;-1.706;2022-10-31T00:23:05;8.32;;;3.00;;
16824;SDS011;8529;48.108;-1.706;2022-10-31T00:25:33;8.75;;;2.92;;
16824;SDS011;8529;48.108;-1.706;2022-10-31T00:28:01;4.82;;;2.70;;
16824;SDS011;8529;48.108;-1.706;2022-10-31T00:30:28;4.95;;;2.53;;
16824;SDS011;8529;48.108;-1.706;2022-10-31T00:32:55;13.00;;;3.15;;
16824;SDS011;8529;48.108;-1.706;2022-10-31T00:35:22;4.82;;;2.50;;
16824;SDS011;8529;48.108;-1.706;2022-10-31T00:37:51;10.20;;;3.13;;
16824;SDS011;8529;48.108;-1.706;2022-10-31T00:40:18;5.68;;;2.45;;
16824;SDS011;8529;48.108;-1.706;2022-10-31T00:42:45;5.65;;;2.70;;
16824;SDS011;8529;48.108;-1.706;2022-10-31T00:45:12;8.63;;;3.55;;
16824;SDS011;8529;48.108;-1.706;2022-10-31T00:47:40;9.30;;;3.70;;
16824;SDS011;8529;48.108;-1.706;2022-10-31T00:50:07;11.55;;;3.30;;
16824;SDS011;8529;48.108;-1.706;2022-10-31T00:52:34;6.05;;;2.78;;
16824;SDS011;8529;48.108;-1.706;2022-10-31T00:55:03;11.45;;;3.30;;
16824;SDS011;8529;48.108;-1.706;2022-10-31T00:57:30;13.10;;;3.22;;
16824;SDS011;8529;48.108;-1.706;2022-10-31T00:59:57;5.28;;;2.80;;
16824;SDS011;8529;48.108;-1.706;2022-10-31T01:02:24;5.20;;;2.65;;
16824;SDS011;8529;48.108;-1.706;2022-10-31T01:04:51;7.97;;;3.45;;
16824;SDS011;8529;48.108;-1.706;2022-10-31T01:07:18;6.72;;;2.92;;
16824;SDS011;8529;48.108;-1.706;2022-10-31T01:09:45;9.05;;;3.22;;
16824;SDS011;8529;48.108;-1.706;2022-10-31T01:12:13;7.68;;;3.17;;
16824;SDS011;8529;48.108;-1.706;2022-10-31T01:14:42;6.40;;;3.17;;
16824;SDS011;8529;48.108;-1.706;2022-10-31T01:17:09;7.00;;;2.50;;
16824;SDS011;8529;48.108;-1.706;2022-10-31T01:19:36;4.97;;;2.75;;
16824;SDS011;8529;48.108;-1.706;2022-10-31T01:22:03;9.13;;;2.78;;
16824;SDS011;8529;48.108;-1.706;2022-10-31T01:24:38;7.53;;;2.50;;
16824;SDS011;8529;48.108;-1.706;2022-10-31T01:27:05;5.78;;;3.20;;
16824;SDS011;8529;48.108;-1.706;2022-10-31T01:29:33;6.57;;;2.53;;
16824;SDS011;8529;48.108;-1.706;2022-10-31T01:32:03;6.45;;;2.97;;
16824;SDS011;8529;48.108;-1.706;2022-10-31T01:34:32;5.40;;;2.67;;
16824;SDS011;8529;48.108;-1.706;2022-10-31T01:37:00;4.80;;;3.15;;
16824;SDS011;8529;48.108;-1.706;2022-10-31T01:39:29;7.80;;;2.58;;
16824;SDS011;8529;48.108;-1.706;2022-10-31T01:41:57;5.15;;;2.83;;
16824;SDS011;8529;48.108;-1.706;2022-10-31T01:47:20;4.40;;;2.83;;
16824;SDS011;8529;48.108;-1.706;2022-10-31T01:49:55;8.02;;;3.05;;
16824;SDS011;8529;48.108;-1.706;2022-10-31T01:52:29;8.80;;;2.53;;
16824;SDS011;8529;48.108;-1.706;2022-10-31T01:55:00;9.05;;;3.63;;
16824;SDS011;8529;48.108;-1.706;2022-10-31T01:57:34;5.50;;;2.63;;
16824;SDS011;8529;48.108;-1.706;2022-10-31T02:00:17;6.30;;;3.08;;
16824;SDS011;8529;48.108;-1.706;2022-10-31T02:02:52;7.60;;;2.90;;
16824;SDS011;8529;48.108;-1.706;2022-10-31T02:05:21;7.18;;;3.53;;
16824;SDS011;8529;48.108;-1.706;2022-10-31T02:08:01;4.65;;;2.92;;
16824;SDS011;8529;48.108;-1.706;2022-10-31T02:10:30;6.38;;;3.22;;
16824;SDS011;8529;48.108;-1.706;2022-10-31T02:13:00;7.03;;;3.33;;
16824;SDS011;8529;48.108;-1.706;2022-10-31T02:15:32;6.57;;;4.03;;
16824;SDS011;8529;48.108;-1.706;2022-10-31T02:18:02;7.88;;;3.97;;
16824;SDS011;8529;48.108;-1.706;2022-10-31T02:20:35;8.45;;;4.10;;
16824;SDS011;8529;48.108;-1.706;2022-10-31T02:23:23;8.68;;;5.05;;
16824;SDS011;8529;48.108;-1.706;2022-10-31T02:26:17;5.25;;;3.95;;
16824;SDS011;8529;48.108;-1.706;2022-10-31T02:29:16;7.68;;;3.80;;
16824;SDS011;8529;48.108;-1.706;2022-10-31T02:32:18;11.52;;;4.10;;
16824;SDS011;8529;48.108;-1.706;2022-10-31T02:34:53;7.30;;;3.83;;
16824;SDS011;8529;48.108;-1.706;2022-10-31T02:37:34;8.68;;;3.90;;
16824;SDS011;8529;48.108;-1.706;2022-10-31T02:40:08;7.25;;;3.47;;
16824;SDS011;8529;48.108;-1.706;2022-10-31T02:42:47;10.35;;;3.40;;
16824;SDS011;8529;48.108;-1.706;2022-10-31T02:45:26;6.35;;;3.30;;
16824;SDS011;8529;48.108;-1.706;2022-10-31T02:48:01;5.43;;;3.60;;
16824;SDS011;8529;48.108;-1.706;2022-10-31T02:50:34;14.05;;;3.40;;
16824;SDS011;8529;48.108;-1.706;2022-10-31T02:53:08;7.57;;;2.80;;
16824;SDS011;8529;48.108;-1.706;2022-10-31T02:55:44;8.80;;;3.38;;
16824;SDS011;8529;48.108;-1.706;2022-10-31T02:58:24;11.75;;;3.10;;
16824;SDS011;8529;48.108;-1.706;2022-10-31T03:01:00;7.78;;;2.90;;
16824;SDS011;8529;48.108;-1.706;2022-10-31T03:04:00;10.35;;;2.72;;
16824;SDS011;8529;48.108;-1.706;2022-10-31T03:06:56;4.30;;;2.30;;
16824;SDS011;8529;48.108;-1.706;2022-10-31T03:09:31;10.45;;;2.80;;
16824;SDS011;8529;48.108;-1.706;2022-10-31T03:12:07;6.47;;;2.53;;
16824;SDS011;8529;48.108;-1.706;2022-10-31T03:14:38;6.45;;;2.40;;
16824;SDS011;8529;48.108;-1.706;2022-10-31T03:17:08;6.65;;;2.50;;
16824;SDS011;8529;48.108;-1.706;2022-10-31T03:19:42;4.05;;;2.15;;
16824;SDS011;8529;48.108;-1.706;2022-10-31T03:22:15;3.33;;;2.28;;
16824;SDS011;8529;48.108;-1.706;2022-10-31T03:24:45;7.13;;;2.50;;
16824;SDS011;8529;48.108;-1.706;2022-10-31T03:27:14;5.97;;;2.40;;
16824;SDS011;8529;48.108;-1.706;2022-10-31T03:29:45;6.97;;;2.33;;
16824;SDS011;8529;48.108;-1.706;2022-10-31T03:32:14;3.38;;;2.05;;
16824;SDS011;8529;48.108;-1.706;2022-10-31T03:34:46;4.68;;;1.95;;
16824;SDS011;8529;48.108;-1.706;2022-10-31T03:37:17;7.28;;;2.50;;
16824;SDS011;8529;48.108;-1.706;2022-10-31T03:39:46;4.00;;;2.20;;
16824;SDS011;8529;48.108;-1.706;2022-10-31T03:42:16;6.53;;;2.40;;
16824;SDS011;8529;48.108;-1.706;2022-10-31T03:44:49;7.90;;;2.10;;
16824;SDS011;8529;48.108;-1.706;2022-10-31T03:47:22;6.05;;;2.22;;
16824;SDS011;8529;48.108;-1.706;2022-10-31T03:49:50;5.75;;;2.20;;
16824;SDS011;8529;48.108;-1.706;2022-10-31T03:52:19;5.75;;;2.45;;
16824;SDS011;8529;48.108;-1.706;2022-10-31T03:54:52;5.57;;;1.88;;
16824;SDS011;8529;48.108;-1.706;2022-10-31T03:57:23;5.03;;;2.08;;
16824;SDS011;8529;48.108;-1.706;2022-10-31T03:59:53;7.07;;;2.15;;
16824;SDS011;8529;48.108;-1.706;2022-10-31T04:02:26;6.72;;;1.90;;
16824;SDS011;8529;48.108;-1.706;2022-10-31T04:04:58;6.03;;;2.45;;
16824;SDS011;8529;48.108;-1.706;2022-10-31T04:07:26;6.18;;;2.13;;
16824;SDS011;8529;48.108;-1.706;2022-10-31T04:09:56;6.40;;;2.50;;
16824;SDS011;8529;48.108;-1.706;2022-10-31T04:12:26;2.25;;;1.95;;
16824;SDS011;8529;48.108;-1.706;2022-10-31T04:14:54;6.45;;;2.17;;
16824;SDS011;8529;48.108;-1.706;2022-10-31T04:17:22;7.88;;;2.30;;
16824;SDS011;8529;48.108;-1.706;2022-10-31T04:19:52;11.15;;;2.10;;
16824;SDS011;8529;48.108;-1.706;2022-10-31T04:22:21;4.25;;;2.17;;
16824;SDS011;8529;48.108;-1.706;2022-10-31T04:24:47;5.18;;;2.20;;
16824;SDS011;8529;48.108;-1.706;2022-10-31T04:27:14;6.38;;;2.10;;
16824;SDS011;8529;48.108;-1.706;2022-10-31T04:29:41;8.85;;;2.28;;
16824;SDS011;8529;48.108;-1.706;2022-10-31T04:32:08;4.45;;;2.45;;
16824;SDS011;8529;48.108;-1.706;2022-10-31T04:34:35;9.48;;;2.15;;
16824;SDS011;8529;48.108;-1.706;2022-10-31T04:37:02;8.80;;;2.42;;
16824;SDS011;8529;48.108;-1.706;2022-10-31T04:39:30;3.15;;;1.80;;
16824;SDS011;8529;48.108;-1.706;2022-10-31T04:41:57;8.70;;;1.83;;
16824;SDS011;8529;48.108;-1.706;2022-10-31T04:44:24;8.38;;;2.40;;
16824;SDS011;8529;48.108;-1.706;2022-10-31T04:46:51;5.70;;;1.80;;
16824;SDS011;8529;48.108;-1.706;2022-10-31T04:49:18;3.10;;;1.88;;
16824;SDS011;8529;48.108;-1.706;2022-10-31T04:51:45;2.95;;;2.10;;
16824;SDS011;8529;48.108;-1.706;2022-10-31T04:54:12;4.30;;;2.05;;
16824;SDS011;8529;48.108;-1.706;2022-10-31T04:56:40;5.93;;;2.40;;
16824;SDS011;8529;48.108;-1.706;2022-10-31T04:59:07;6.20;;;2.40;;
16824;SDS011;8529;48.108;-1.706;2022-10-31T05:01:34;7.13;;;1.88;;
16824;SDS011;8529;48.108;-1.706;2022-10-31T05:04:01;6.13;;;1.95;;
16824;SDS011;8529;48.108;-1.706;2022-10-31T05:06:28;3.92;;;1.70;;
16824;SDS011;8529;48.108;-1.706;2022-10-31T05:08:55;6.60;;;1.85;;
16824;SDS011;8529;48.108;-1.706;2022-10-31T05:11:22;4.68;;;1.80;;
16824;SDS011;8529;48.108;-1.706;2022-10-31T05:13:50;3.50;;;1.90;;
16824;SDS011;8529;48.108;-1.706;2022-10-31T05:16:17;14.43;;;2.00;;
16824;SDS011;8529;48.108;-1.706;2022-10-31T05:18:44;5.43;;;2.15;;
16824;SDS011;8529;48.108;-1.706;2022-10-31T05:21:11;6.07;;;2.35;;
16824;SDS011;8529;48.108;-1.706;2022-10-31T05:23:38;9.10;;;2.05;;
16824;SDS011;8529;48.108;-1.706;2022-10-31T05:26:05;3.17;;;2.20;;
16824;SDS011;8529;48.108;-1.706;2022-10-31T05:28:32;6.18;;;1.80;;
16824;SDS011;8529;48.108;-1.706;2022-10-31T05:31:00;3.63;;;1.92;;
16824;SDS011;8529;48.108;-1.706;2022-10-31T05:33:27;4.97;;;1.90;;
16824;SDS011;8529;48.108;-1.706;2022-10-31T05:35:54;4.25;;;2.08;;
16824;SDS011;8529;48.108;-1.706;2022-10-31T05:38:20;4.18;;;1.88;;
16824;SDS011;8529;48.108;-1.706;2022-10-31T05:40:47;6.35;;;2.45;;
16824;SDS011;8529;48.108;-1.706;2022-10-31T05:43:14;4.75;;;2.03;;
16824;SDS011;8529;48.108;-1.706;2022-10-31T05:45:41;5.95;;;2.10;;
16824;SDS011;8529;48.108;-1.706;2022-10-31T05:48:09;5.70;;;2.20;;
16824;SDS011;8529;48.108;-1.706;2022-10-31T05:50:36;6.57;;;2.17;;
16824;SDS011;8529;48.108;-1.706;2022-10-31T05:53:04;5.75;;;2.42;;
16824;SDS011;8529;48.108;-1.706;2022-10-31T05:55:31;5.80;;;2.55;;
16824;SDS011;8529;48.108;-1.706;2022-10-31T05:57:58;4.43;;;2.22;;
16824;SDS011;8529;48.108;-1.706;2022-10-31T06:00:26;8.30;;;2.78;;
16824;SDS011;8529;48.108;-1.706;2022-10-31T06:02:57;5.35;;;2.70;;
16824;SDS011;8529;48.108;-1.706;2022-10-31T06:05:26;4.38;;;2.33;;
16824;SDS011;8529;48.108;-1.706;2022-10-31T06:07:53;7.32;;;3.00;;
16824;SDS011;8529;48.108;-1.706;2022-10-31T06:10:20;5.10;;;2.78;;
16824;SDS011;8529;48.108;-1.706;2022-10-31T06:12:47;4.45;;;2.65;;
16824;SDS011;8529;48.108;-1.706;2022-10-31T06:15:14;4.65;;;2.58;;
16824;SDS011;8529;48.108;-1.706;2022-10-31T06:17:42;4.88;;;2.78;;
16824;SDS011;8529;48.108;-1.706;2022-10-31T06:20:09;5.70;;;2.65;;
16824;SDS011;8529;48.108;-1.706;2022-10-31T06:22:38;3.55;;;2.35;;
16824;SDS011;8529;48.108;-1.706;2022-10-31T06:25:05;5.15;;;2.67;;
16824;SDS011;8529;48.108;-1.706;2022-10-31T06:27:32;4.57;;;2.55;;
16824;SDS011;8529;48.108;-1.706;2022-10-31T06:29:59;7.50;;;2.80;;
16824;SDS011;8529;48.108;-1.706;2022-10-31T06:32:26;3.25;;;2.72;;
16824;SDS011;8529;48.108;-1.706;2022-10-31T06:34:53;4.70;;;2.85;;
16824;SDS011;8529;48.108;-1.706;2022-10-31T06:37:20;3.65;;;2.67;;
16824;SDS011;8529;48.108;-1.706;2022-10-31T06:39:49;9.00;;;3.13;;
16824;SDS011;8529;48.108;-1.706;2022-10-31T06:42:16;5.03;;;2.38;;
16824;SDS011;8529;48.108;-1.706;2022-10-31T06:44:43;5.18;;;2.80;;
16824;SDS011;8529;48.108;-1.706;2022-10-31T06:47:10;15.23;;;3.13;;
16824;SDS011;8529;48.108;-1.706;2022-10-31T06:49:36;5.28;;;2.80;;
16824;SDS011;8529;48.108;-1.706;2022-10-31T06:52:04;5.60;;;2.90;;
16824;SDS011;8529;48.108;-1.706;2022-10-31T06:54:31;5.32;;;2.95;;
16824;SDS011;8529;48.108;-1.706;2022-10-31T06:56:59;4.25;;;3.40;;
16824;SDS011;8529;48.108;-1.706;2022-10-31T06:59:26;3.83;;;2.63;;
16824;SDS011;8529;48.108;-1.706;2022-10-31T07:01:53;5.35;;;2.78;;
16824;SDS011;8529;48.108;-1.706;2022-10-31T07:04:20;4.55;;;3.05;;
16824;SDS011;8529;48.108;-1.706;2022-10-31T07:06:50;7.82;;;3.17;;
16824;SDS011;8529;48.108;-1.706;2022-10-31T07:09:16;5.97;;;2.92;;
16824;SDS011;8529;48.108;-1.706;2022-10-31T07:11:44;4.20;;;3.30;;
16824;SDS011;8529;48.108;-1.706;2022-10-31T07:14:12;5.15;;;3.25;;
16824;SDS011;8529;48.108;-1.706;2022-10-31T07:16:39;4.57;;;3.15;;
16824;SDS011;8529;48.108;-1.706;2022-10-31T07:19:06;3.95;;;3.38;;
16824;SDS011;8529;48.108;-1.706;2022-10-31T07:21:33;4.93;;;3.00;;
16824;SDS011;8529;48.108;-1.706;2022-10-31T07:23:59;5.53;;;3.33;;
16824;SDS011;8529;48.108;-1.706;2022-10-31T07:26:26;3.80;;;2.78;;
16824;SDS011;8529;48.108;-1.706;2022-10-31T07:28:53;4.75;;;3.10;;
16824;SDS011;8529;48.108;-1.706;2022-10-31T07:31:22;4.85;;;3.03;;
16824;SDS011;8529;48.108;-1.706;2022-10-31T07:33:49;7.40;;;3.08;;
16824;SDS011;8529;48.108;-1.706;2022-10-31T07:36:16;4.35;;;2.97;;
16824;SDS011;8529;48.108;-1.706;2022-10-31T07:38:43;5.00;;;3.15;;
16824;SDS011;8529;48.108;-1.706;2022-10-31T07:41:10;5.78;;;3.35;;
16824;SDS011;8529;48.108;-1.706;2022-10-31T07:43:37;5.13;;;3.42;;
16824;SDS011;8529;48.108;-1.706;2022-10-31T07:46:04;5.00;;;3.08;;
16824;SDS011;8529;48.108;-1.706;2022-10-31T07:48:32;4.13;;;3.10;;
16824;SDS011;8529;48.108;-1.706;2022-10-31T07:50:59;3.95;;;2.72;;
16824;SDS011;8529;48.108;-1.706;2022-10-31T07:53:26;7.32;;;2.92;;
16824;SDS011;8529;48.108;-1.706;2022-10-31T07:55:53;3.78;;;3.20;;
16824;SDS011;8529;48.108;-1.706;2022-10-31T07:58:20;4.82;;;3.00;;
16824;SDS011;8529;48.108;-1.706;2022-10-31T08:00:47;4.85;;;3.20;;
16824;SDS011;8529;48.108;-1.706;2022-10-31T08:03:14;4.05;;;2.85;;
16824;SDS011;8529;48.108;-1.706;2022-10-31T08:05:44;5.38;;;3.05;;
16824;SDS011;8529;48.108;-1.706;2022-10-31T08:08:12;5.75;;;2.92;;
16824;SDS011;8529;48.108;-1.706;2022-10-31T08:10:40;4.40;;;2.75;;
16824;SDS011;8529;48.108;-1.706;2022-10-31T08:13:07;6.53;;;3.88;;
16824;SDS011;8529;48.108;-1.706;2022-10-31T08:15:35;5.70;;;3.38;;
16824;SDS011;8529;48.108;-1.706;2022-10-31T08:18:05;4.95;;;3.45;;
16824;SDS011;8529;48.108;-1.706;2022-10-31T08:20:32;4.90;;;2.92;;
16824;SDS011;8529;48.108;-1.706;2022-10-31T08:23:01;4.85;;;3.17;;
16824;SDS011;8529;48.108;-1.706;2022-10-31T08:25:30;6.60;;;3.25;;
16824;SDS011;8529;48.108;-1.706;2022-10-31T08:27:58;6.93;;;3.40;;
16824;SDS011;8529;48.108;-1.706;2022-10-31T08:30:25;4.72;;;3.22;;
16824;SDS011;8529;48.108;-1.706;2022-10-31T08:32:57;4.35;;;3.10;;
16824;SDS011;8529;48.108;-1.706;2022-10-31T08:35:25;4.30;;;2.80;;
16824;SDS011;8529;48.108;-1.706;2022-10-31T08:37:52;4.05;;;3.30;;
16824;SDS011;8529;48.108;-1.706;2022-10-31T08:40:21;6.13;;;3.50;;
16824;SDS011;8529;48.108;-1.706;2022-10-31T08:42:55;7.03;;;3.25;;
16824;SDS011;8529;48.108;-1.706;2022-10-31T08:45:22;8.07;;;3.45;;
16824;SDS011;8529;48.108;-1.706;2022-10-31T08:47:49;4.03;;;2.63;;
16824;SDS011;8529;48.108;-1.706;2022-10-31T08:50:17;4.65;;;3.30;;
16824;SDS011;8529;48.108;-1.706;2022-10-31T08:52:44;4.47;;;2.70;;
16824;SDS011;8529;48.108;-1.706;2022-10-31T08:55:11;3.95;;;2.88;;
16824;SDS011;8529;48.108;-1.706;2022-10-31T08:57:39;5.43;;;2.78;;
16824;SDS011;8529;48.108;-1.706;2022-10-31T09:00:06;7.18;;;2.70;;
16824;SDS011;8529;48.108;-1.706;2022-10-31T09:02:34;5.15;;;2.88;;
16824;SDS011;8529;48.108;-1.706;2022-10-31T09:05:02;5.15;;;3.08;;
16824;SDS011;8529;48.108;-1.706;2022-10-31T09:07:29;2.92;;;2.33;;
16824;SDS011;8529;48.108;-1.706;2022-10-31T09:09:56;7.97;;;3.28;;
16824;SDS011;8529;48.108;-1.706;2022-10-31T09:12:23;5.88;;;3.22;;
16824;SDS011;8529;48.108;-1.706;2022-10-31T09:14:51;5.88;;;2.67;;
16824;SDS011;8529;48.108;-1.706;2022-10-31T09:17:18;3.83;;;2.70;;
16824;SDS011;8529;48.108;-1.706;2022-10-31T09:19:45;4.90;;;2.97;;
16824;SDS011;8529;48.108;-1.706;2022-10-31T09:22:12;4.45;;;2.90;;
16824;SDS011;8529;48.108;-1.706;2022-10-31T09:25:49;5.20;;;2.75;;
16824;SDS011;8529;48.108;-1.706;2022-10-31T09:28:17;5.28;;;2.95;;
16824;SDS011;8529;48.108;-1.706;2022-10-31T09:30:46;5.35;;;2.78;;
16824;SDS011;8529;48.108;-1.706;2022-10-31T09:33:14;6.10;;;2.88;;
16824;SDS011;8529;48.108;-1.706;2022-10-31T09:35:41;4.60;;;3.22;;
16824;SDS011;8529;48.108;-1.706;2022-10-31T09:38:09;5.03;;;3.35;;
16824;SDS011;8529;48.108;-1.706;2022-10-31T09:40:37;3.40;;;2.78;;
16824;SDS011;8529;48.108;-1.706;2022-10-31T09:43:11;6.55;;;2.95;;
16824;SDS011;8529;48.108;-1.706;2022-10-31T09:45:43;4.57;;;3.35;;
16824;SDS011;8529;48.108;-1.706;2022-10-31T09:48:28;5.93;;;3.70;;
16824;SDS011;8529;48.108;-1.706;2022-10-31T09:51:03;4.80;;;3.55;;
16824;SDS011;8529;48.108;-1.706;2022-10-31T09:53:34;5.28;;;3.90;;
16824;SDS011;8529;48.108;-1.706;2022-10-31T09:56:06;7.40;;;4.18;;
16824;SDS011;8529;48.108;-1.706;2022-10-31T09:58:39;9.77;;;4.35;;
16824;SDS011;8529;48.108;-1.706;2022-10-31T10:01:14;9.32;;;4.55;;
16824;SDS011;8529;48.108;-1.706;2022-10-31T10:03:49;7.00;;;4.25;;
16824;SDS011;8529;48.108;-1.706;2022-10-31T10:06:21;8.65;;;4.78;;
16824;SDS011;8529;48.108;-1.706;2022-10-31T10:08:50;6.25;;;4.68;;
16824;SDS011;8529;48.108;-1.706;2022-10-31T10:11:24;9.25;;;4.95;;
16824;SDS011;8529;48.108;-1.706;2022-10-31T10:14:07;8.15;;;5.25;;
16824;SDS011;8529;48.108;-1.706;2022-10-31T10:16:45;7.35;;;4.63;;
16824;SDS011;8529;48.108;-1.706;2022-10-31T10:19:29;7.95;;;6.05;;
16824;SDS011;8529;48.108;-1.706;2022-10-31T10:22:08;8.77;;;6.05;;
16824;SDS011;8529;48.108;-1.706;2022-10-31T10:24:47;11.20;;;6.05;;
16824;SDS011;8529;48.108;-1.706;2022-10-31T10:27:28;9.93;;;6.10;;
16824;SDS011;8529;48.108;-1.706;2022-10-31T10:30:12;10.93;;;6.88;;
16824;SDS011;8529;48.108;-1.706;2022-10-31T10:32:42;11.52;;;6.43;;
16824;SDS011;8529;48.108;-1.706;2022-10-31T10:35:16;11.10;;;6.25;;
16824;SDS011;8529;48.108;-1.706;2022-10-31T10:37:48;8.90;;;6.70;;
16824;SDS011;8529;48.108;-1.706;2022-10-31T10:40:18;10.40;;;6.65;;
16824;SDS011;8529;48.108;-1.706;2022-10-31T10:42:50;9.05;;;6.60;;
16824;SDS011;8529;48.108;-1.706;2022-10-31T10:45:43;14.25;;;7.25;;
16824;SDS011;8529;48.108;-1.706;2022-10-31T10:48:36;12.05;;;6.72;;
16824;SDS011;8529;48.108;-1.706;2022-10-31T10:51:10;9.65;;;6.88;;
16824;SDS011;8529;48.108;-1.706;2022-10-31T10:53:49;12.93;;;7.32;;
16824;SDS011;8529;48.108;-1.706;2022-10-31T10:56:35;8.82;;;6.13;;
16824;SDS011;8529;48.108;-1.706;2022-10-31T10:59:08;10.20;;;6.80;;
16824;SDS011;8529;48.108;-1.706;2022-10-31T11:01:40;11.10;;;7.20;;
16824;SDS011;8529;48.108;-1.706;2022-10-31T11:04:20;9.70;;;6.88;;
16824;SDS011;8529;48.108;-1.706;2022-10-31T11:06:58;12.52;;;7.80;;
16824;SDS011;8529;48.108;-1.706;2022-10-31T11:09:26;12.35;;;7.78;;
16824;SDS011;8529;48.108;-1.706;2022-10-31T11:11:53;10.48;;;7.47;;
16824;SDS011;8529;48.108;-1.706;2022-10-31T11:14:22;14.48;;;8.05;;
16824;SDS011;8529;48.108;-1.706;2022-10-31T11:16:51;11.40;;;7.97;;
16824;SDS011;8529;48.108;-1.706;2022-10-31T11:19:22;9.27;;;7.95;;
16824;SDS011;8529;48.108;-1.706;2022-10-31T11:21:51;12.32;;;8.07;;
16824;SDS011;8529;48.108;-1.706;2022-10-31T11:24:19;12.23;;;8.18;;
16824;SDS011;8529;48.108;-1.706;2022-10-31T11:26:48;12.05;;;7.95;;
16824;SDS011;8529;48.108;-1.706;2022-10-31T11:29:16;11.20;;;7.85;;
16824;SDS011;8529;48.108;-1.706;2022-10-31T11:31:46;13.77;;;8.10;;
16824;SDS011;8529;48.108;-1.706;2022-10-31T11:34:21;13.98;;;8.95;;
16824;SDS011;8529;48.108;-1.706;2022-10-31T11:36:54;12.98;;;8.18;;
16824;SDS011;8529;48.108;-1.706;2022-10-31T11:39:26;13.45;;;9.18;;
16824;SDS011;8529;48.108;-1.706;2022-10-31T11:41:53;14.02;;;8.27;;
16824;SDS011;8529;48.108;-1.706;2022-10-31T11:44:22;14.15;;;9.48;;
16824;SDS011;8529;48.108;-1.706;2022-10-31T11:46:53;15.15;;;9.60;;
16824;SDS011;8529;48.108;-1.706;2022-10-31T11:49:25;14.35;;;9.50;;
16824;SDS011;8529;48.108;-1.706;2022-10-31T11:51:56;16.73;;;10.52;;
16824;SDS011;8529;48.108;-1.706;2022-10-31T11:54:26;13.52;;;9.88;;
16824;SDS011;8529;48.108;-1.706;2022-10-31T11:56:55;18.88;;;10.07;;
16824;SDS011;8529;48.108;-1.706;2022-10-31T11:59:26;17.00;;;9.30;;
16824;SDS011;8529;48.108;-1.706;2022-10-31T12:01:56;17.48;;;10.68;;
16824;SDS011;8529;48.108;-1.706;2022-10-31T12:04:31;16.95;;;10.77;;
16824;SDS011;8529;48.108;-1.706;2022-10-31T12:07:03;16.35;;;9.68;;
16824;SDS011;8529;48.108;-1.706;2022-10-31T12:09:32;16.25;;;10.70;;
16824;SDS011;8529;48.108;-1.706;2022-10-31T12:12:05;19.30;;;10.25;;
16824;SDS011;8529;48.108;-1.706;2022-10-31T12:14:44;17.48;;;10.48;;
16824;SDS011;8529;48.108;-1.706;2022-10-31T12:17:18;18.65;;;10.50;;
16824;SDS011;8529;48.108;-1.706;2022-10-31T12:19:54;16.30;;;9.68;;
16824;SDS011;8529;48.108;-1.706;2022-10-31T12:22:38;18.80;;;10.55;;
16824;SDS011;8529;48.108;-1.706;2022-10-31T12:25:23;16.08;;;10.65;;
16824;SDS011;8529;48.108;-1.706;2022-10-31T12:28:11;20.23;;;11.70;;
16824;SDS011;8529;48.108;-1.706;2022-10-31T12:30:51;17.30;;;11.25;;
16824;SDS011;8529;48.108;-1.706;2022-10-31T12:33:35;20.75;;;11.82;;
16824;SDS011;8529;48.108;-1.706;2022-10-31T12:36:27;17.67;;;11.23;;
16824;SDS011;8529;48.108;-1.706;2022-10-31T12:42:02;16.48;;;11.18;;
16824;SDS011;8529;48.108;-1.706;2022-10-31T12:50:31;22.45;;;13.00;;
16824;SDS011;8529;48.108;-1.706;2022-10-31T12:53:15;19.90;;;12.65;;
16824;SDS011;8529;48.108;-1.706;2022-10-31T12:55:53;17.15;;;10.65;;
16824;SDS011;8529;48.108;-1.706;2022-10-31T12:58:28;23.92;;;12.25;;
16824;SDS011;8529;48.108;-1.706;2022-10-31T13:01:03;20.75;;;12.20;;
16824;SDS011;8529;48.108;-1.706;2022-10-31T13:03:37;20.27;;;11.63;;
16824;SDS011;8529;48.108;-1.706;2022-10-31T13:06:13;20.00;;;12.38;;
16824;SDS011;8529;48.108;-1.706;2022-10-31T13:08:57;18.38;;;12.02;;
16824;SDS011;8529;48.108;-1.706;2022-10-31T13:11:28;19.80;;;11.90;;
16824;SDS011;8529;48.108;-1.706;2022-10-31T13:14:01;23.25;;;13.30;;
16824;SDS011;8529;48.108;-1.706;2022-10-31T13:16:45;21.65;;;12.02;;
16824;SDS011;8529;48.108;-1.706;2022-10-31T13:19:15;21.92;;;11.20;;
16824;SDS011;8529;48.108;-1.706;2022-10-31T13:21:48;20.40;;;11.98;;
16824;SDS011;8529;48.108;-1.706;2022-10-31T13:24:22;18.85;;;11.00;;
16824;SDS011;8529;48.108;-1.706;2022-10-31T13:26:54;19.58;;;11.68;;
16824;SDS011;8529;48.108;-1.706;2022-10-31T13:29:25;21.90;;;12.73;;
16824;SDS011;8529;48.108;-1.706;2022-10-31T13:31:56;20.13;;;11.40;;
16824;SDS011;8529;48.108;-1.706;2022-10-31T13:34:24;19.77;;;12.38;;
16824;SDS011;8529;48.108;-1.706;2022-10-31T13:37:00;20.85;;;12.15;;
16824;SDS011;8529;48.108;-1.706;2022-10-31T13:39:52;20.48;;;11.73;;
16824;SDS011;8529;48.108;-1.706;2022-10-31T13:42:32;20.55;;;13.38;;
16824;SDS011;8529;48.108;-1.706;2022-10-31T13:45:11;21.65;;;11.85;;
16824;SDS011;8529;48.108;-1.706;2022-10-31T13:47:40;22.67;;;12.20;;
16824;SDS011;8529;48.108;-1.706;2022-10-31T13:50:18;21.27;;;11.90;;
16824;SDS011;8529;48.108;-1.706;2022-10-31T13:52:46;20.90;;;12.73;;
16824;SDS011;8529;48.108;-1.706;2022-10-31T13:58:03;20.10;;;11.98;;
16824;SDS011;8529;48.108;-1.706;2022-10-31T14:00:31;20.23;;;11.50;;
16824;SDS011;8529;48.108;-1.706;2022-10-31T14:03:00;17.05;;;11.50;;
16824;SDS011;8529;48.108;-1.706;2022-10-31T14:05:29;19.80;;;11.98;;
16824;SDS011;8529;48.108;-1.706;2022-10-31T14:07:59;20.42;;;11.98;;
16824;SDS011;8529;48.108;-1.706;2022-10-31T14:10:28;14.60;;;10.95;;
16824;SDS011;8529;48.108;-1.706;2022-10-31T14:13:04;18.10;;;10.98;;
16824;SDS011;8529;48.108;-1.706;2022-10-31T14:15:33;21.35;;;11.77;;
16824;SDS011;8529;48.108;-1.706;2022-10-31T14:18:05;17.35;;;10.95;;
16824;SDS011;8529;48.108;-1.706;2022-10-31T14:20:43;16.85;;;10.52;;
16824;SDS011;8529;48.108;-1.706;2022-10-31T14:26:17;17.17;;;10.38;;
16824;SDS011;8529;48.108;-1.706;2022-10-31T14:28:49;17.58;;;10.00;;
16824;SDS011;8529;48.108;-1.706;2022-10-31T14:34:05;18.23;;;10.07;;
16824;SDS011;8529;48.108;-1.706;2022-10-31T14:36:46;17.88;;;10.50;;
16824;SDS011;8529;48.108;-1.706;2022-10-31T14:39:29;17.85;;;9.32;;
16824;SDS011;8529;48.108;-1.706;2022-10-31T14:42:10;15.52;;;10.50;;
16824;SDS011;8529;48.108;-1.706;2022-10-31T14:44:57;16.95;;;9.52;;
16824;SDS011;8529;48.108;-1.706;2022-10-31T14:47:49;16.98;;;9.95;;
16824;SDS011;8529;48.108;-1.706;2022-10-31T14:50:29;14.45;;;8.88;;
16824;SDS011;8529;48.108;-1.706;2022-10-31T14:53:08;14.52;;;8.65;;
16824;SDS011;8529;48.108;-1.706;2022-10-31T14:55:43;15.60;;;9.25;;
16824;SDS011;8529;48.108;-1.706;2022-10-31T14:58:18;12.48;;;8.20;;
16824;SDS011;8529;48.108;-1.706;2022-10-31T15:00:50;12.10;;;6.30;;
16824;SDS011;8529;48.108;-1.706;2022-10-31T15:03:23;12.57;;;5.68;;
16824;SDS011;8529;48.108;-1.706;2022-10-31T15:05:54;7.32;;;4.63;;
16824;SDS011;8529;48.108;-1.706;2022-10-31T15:08:29;10.65;;;5.05;;
16824;SDS011;8529;48.108;-1.706;2022-10-31T15:11:11;7.85;;;3.85;;
16824;SDS011;8529;48.108;-1.706;2022-10-31T15:13:43;4.72;;;2.72;;
16824;SDS011;8529;48.108;-1.706;2022-10-31T15:16:14;5.90;;;2.83;;
16824;SDS011;8529;48.108;-1.706;2022-10-31T15:18:48;3.47;;;2.45;;
16824;SDS011;8529;48.108;-1.706;2022-10-31T15:21:18;5.30;;;2.40;;
16824;SDS011;8529;48.108;-1.706;2022-10-31T15:23:47;5.60;;;2.58;;
16824;SDS011;8529;48.108;-1.706;2022-10-31T15:26:16;4.85;;;2.95;;